createdAt,value
2023-04-09T00:01:37.007Z,101231.00
2023-04-09T00:04:05.194Z,101227.00
2023-04-09T00:06:33.035Z,101228.00
2023-04-09T00:09:08.546Z,101230.00
2023-04-09T00:11:52.988Z,101223.00
2023-04-09T00:14:23.613Z,101221.00
2023-04-09T00:16:53.955Z,101227.00
2023-04-09T00:19:24.618Z,101217.00
2023-04-09T00:22:01.385Z,101223.00
2023-04-09T00:24:33.360Z,101223.00
2023-04-09T00:27:06.179Z,101221.00
2023-04-09T00:29:34.488Z,101225.00
2023-04-09T00:32:07.944Z,101221.00
2023-04-09T00:34:43.481Z,101226.00
2023-04-09T00:37:13.598Z,101223.00
2023-04-09T00:39:41.869Z,101231.00
2023-04-09T00:42:15.514Z,101226.00
2023-04-09T00:44:45.776Z,101219.00
2023-04-09T00:47:13.359Z,101226.00
2023-04-09T00:49:40.931Z,101226.00
2023-04-09T00:52:13.382Z,101221.00
2023-04-09T00:54:41.859Z,101222.00
2023-04-09T00:57:10.717Z,101223.00
2023-04-09T00:59:38.996Z,101219.00
2023-04-09T01:02:06.915Z,101215.00
2023-04-09T01:04:36.885Z,101214.00
2023-04-09T01:07:11.658Z,101225.00
2023-04-09T01:09:45.708Z,101214.00
2023-04-09T01:12:24.464Z,101220.00
2023-04-09T01:14:59.413Z,101205.00
2023-04-09T01:17:34.397Z,101209.00
2023-04-09T01:20:08.640Z,101216.00
2023-04-09T01:22:57.438Z,101220.00
2023-04-09T01:25:43.347Z,101232.00
2023-04-09T01:28:18.277Z,101234.00
2023-04-09T01:30:49.410Z,101223.00
2023-04-09T01:33:19.607Z,101228.00
2023-04-09T01:35:49.496Z,101233.00
2023-04-09T01:38:20.138Z,101239.00
2023-04-09T01:40:48.500Z,101241.00
2023-04-09T01:43:17.610Z,101245.00
2023-04-09T01:45:45.342Z,101239.00
2023-04-09T01:48:13.845Z,101246.00
2023-04-09T01:50:41.476Z,101245.00
2023-04-09T01:53:13.466Z,101248.00
2023-04-09T01:55:41.277Z,101238.00
2023-04-09T01:58:18.985Z,101231.00
2023-04-09T02:00:48.608Z,101229.00
2023-04-09T02:03:24.926Z,101226.00
2023-04-09T02:05:58.842Z,101246.00
2023-04-09T02:08:27.873Z,101247.00
2023-04-09T02:10:58.724Z,101248.00
2023-04-09T02:13:28.127Z,101247.00
2023-04-09T02:15:56.507Z,101237.00
2023-04-09T02:18:26.596Z,101238.00
2023-04-09T02:20:54.433Z,101232.00
2023-04-09T02:23:22.007Z,101235.00
2023-04-09T02:25:49.637Z,101252.00
2023-04-09T02:28:16.906Z,101238.00
2023-04-09T02:30:44.935Z,101240.00
2023-04-09T02:33:12.177Z,101256.00
2023-04-09T02:35:39.478Z,101247.00
2023-04-09T02:38:12.875Z,101237.00
2023-04-09T02:40:40.778Z,101242.00
2023-04-09T02:43:08.433Z,101245.00
2023-04-09T02:45:36.228Z,101256.00
2023-04-09T02:48:04.784Z,101246.00
2023-04-09T02:50:32.047Z,101246.00
2023-04-09T02:52:59.349Z,101244.00
2023-04-09T02:55:26.661Z,101243.00
2023-04-09T02:57:53.937Z,101244.00
2023-04-09T03:00:21.290Z,101228.00
2023-04-09T03:02:49.155Z,101224.00
2023-04-09T03:05:17.242Z,101231.00
2023-04-09T03:07:44.568Z,101227.00
2023-04-09T03:10:11.945Z,101232.00
2023-04-09T03:12:39.308Z,101236.00
2023-04-09T03:15:07.569Z,101240.00
2023-04-09T03:17:34.954Z,101226.00
2023-04-09T03:20:02.537Z,101223.00
2023-04-09T03:22:35.530Z,101245.00
2023-04-09T03:25:03.301Z,101257.00
2023-04-09T03:27:31.795Z,101241.00
2023-04-09T03:29:59.124Z,101243.00
2023-04-09T03:32:26.525Z,101241.00
2023-04-09T03:34:54.062Z,101230.00
2023-04-09T03:37:21.376Z,101232.00
2023-04-09T03:39:49.280Z,101230.00
2023-04-09T03:42:16.559Z,101228.00
2023-04-09T03:44:43.907Z,101221.00
2023-04-09T03:47:11.229Z,101233.00
2023-04-09T03:49:38.497Z,101234.00
2023-04-09T03:52:07.071Z,101237.00
2023-04-09T03:54:34.331Z,101238.00
2023-04-09T03:57:03.098Z,101238.00
2023-04-09T03:59:30.380Z,101225.00
2023-04-09T04:01:57.731Z,101237.00
2023-04-09T04:04:25.080Z,101240.00
2023-04-09T04:06:52.375Z,101248.00
2023-04-09T04:09:19.640Z,101229.00
2023-04-09T04:11:47.133Z,101237.00
2023-04-09T04:14:15.783Z,101249.00
2023-04-09T04:16:43.633Z,101241.00
2023-04-09T04:19:11.042Z,101244.00
2023-04-09T04:21:38.320Z,101250.00
2023-04-09T04:24:06.054Z,101257.00
2023-04-09T04:26:33.321Z,101242.00
2023-04-09T04:29:00.661Z,101247.00
2023-04-09T04:31:29.007Z,101254.00
2023-04-09T04:33:56.340Z,101245.00
2023-04-09T04:36:23.792Z,101250.00
2023-04-09T04:38:51.631Z,101268.00
2023-04-09T04:41:20.236Z,101267.00
2023-04-09T04:43:48.359Z,101254.00
2023-04-09T04:46:16.239Z,101262.00
2023-04-09T04:48:44.717Z,101257.00
2023-04-09T04:51:13.277Z,101258.00
2023-04-09T04:53:40.750Z,101270.00
2023-04-09T04:56:12.190Z,101264.00
2023-04-09T04:58:39.957Z,101255.00
2023-04-09T05:01:07.555Z,101259.00
2023-04-09T05:03:35.088Z,101252.00
2023-04-09T05:06:03.774Z,101268.00
2023-04-09T05:08:31.235Z,101272.00
2023-04-09T05:10:58.568Z,101278.00
2023-04-09T05:13:26.084Z,101274.00
2023-04-09T05:15:53.675Z,101278.00
2023-04-09T05:18:21.456Z,101271.00
2023-04-09T05:20:49.080Z,101279.00
2023-04-09T05:23:17.621Z,101274.00
2023-04-09T05:25:45.546Z,101276.00
2023-04-09T05:28:19.835Z,101269.00
2023-04-09T05:30:51.413Z,101264.00
2023-04-09T05:33:39.876Z,101278.00
2023-04-09T05:36:30.704Z,101279.00
2023-04-09T05:39:21.880Z,101290.00
2023-04-09T05:42:22.588Z,101291.00
2023-04-09T05:48:43.946Z,101289.00
2023-04-09T05:51:32.043Z,101297.00
2023-04-09T05:54:40.368Z,101288.00
2023-04-09T05:57:37.627Z,101294.00
2023-04-09T06:00:14.032Z,101282.00
2023-04-09T06:02:49.905Z,101296.00
2023-04-09T06:05:17.810Z,101294.00
2023-04-09T06:07:46.968Z,101291.00
2023-04-09T06:10:15.160Z,101290.00
2023-04-09T06:12:43.481Z,101298.00
2023-04-09T06:15:11.243Z,101306.00
2023-04-09T06:17:38.538Z,101306.00
2023-04-09T06:20:06.790Z,101315.00
2023-04-09T06:22:34.007Z,101309.00
2023-04-09T06:25:01.264Z,101315.00
2023-04-09T06:27:28.775Z,101314.00
2023-04-09T06:29:57.469Z,101311.00
2023-04-09T06:32:25.480Z,101306.00
2023-04-09T06:34:52.879Z,101312.00
2023-04-09T06:37:20.221Z,101307.00
2023-04-09T06:40:00.668Z,101307.00
2023-04-09T06:42:28.926Z,101305.00
2023-04-09T06:44:57.667Z,101298.00
2023-04-09T06:47:25.478Z,101298.00
2023-04-09T06:49:52.931Z,101302.00
2023-04-09T06:52:20.550Z,101304.00
2023-04-09T06:54:48.203Z,101301.00
2023-04-09T06:57:15.785Z,101296.00
2023-04-09T06:59:43.174Z,101294.00
2023-04-09T07:02:12.026Z,101300.00
2023-04-09T07:04:39.918Z,101302.00
2023-04-09T07:07:07.564Z,101308.00
2023-04-09T07:09:34.947Z,101306.00
2023-04-09T07:12:02.597Z,101305.00
2023-04-09T07:14:29.998Z,101308.00
2023-04-09T07:16:57.501Z,101305.00
2023-04-09T07:19:26.295Z,101307.00
2023-04-09T07:21:53.695Z,101305.00
2023-04-09T07:24:21.237Z,101302.00
2023-04-09T07:26:51.193Z,101303.00
2023-04-09T07:29:21.975Z,101309.00
2023-04-09T07:31:49.281Z,101310.00
2023-04-09T07:34:16.679Z,101318.00
2023-04-09T07:36:44.814Z,101323.00
2023-04-09T07:39:12.098Z,101319.00
2023-04-09T07:41:39.460Z,101319.00
2023-04-09T07:44:06.952Z,101311.00
2023-04-09T07:46:34.234Z,101305.00
2023-04-09T07:49:01.525Z,101315.00
2023-04-09T07:51:28.788Z,101310.00
2023-04-09T07:53:56.723Z,101306.00
2023-04-09T07:56:24.071Z,101304.00
2023-04-09T07:58:51.713Z,101308.00
2023-04-09T08:01:20.963Z,101321.00
2023-04-09T08:03:48.572Z,101315.00
2023-04-09T08:06:15.941Z,101312.00
2023-04-09T08:08:44.223Z,101321.00
2023-04-09T08:11:12.109Z,101320.00
2023-04-09T08:13:39.793Z,101310.00
2023-04-09T08:16:07.134Z,101324.00
2023-04-09T08:18:34.443Z,101317.00
2023-04-09T08:21:05.404Z,101319.00
2023-04-09T08:23:32.660Z,101315.00
2023-04-09T08:25:59.986Z,101306.00
2023-04-09T08:28:28.196Z,101306.00
2023-04-09T08:30:55.842Z,101312.00
2023-04-09T08:33:23.175Z,101305.00
2023-04-09T08:35:50.606Z,101306.00
2023-04-09T08:38:23.857Z,101316.00
2023-04-09T08:40:51.324Z,101306.00
2023-04-09T08:43:23.635Z,101307.00
2023-04-09T08:45:58.654Z,101319.00
2023-04-09T08:48:26.330Z,101309.00
2023-04-09T08:50:54.173Z,101315.00
2023-04-09T08:53:22.663Z,101316.00
2023-04-09T08:55:49.975Z,101317.00
2023-04-09T08:58:17.219Z,101318.00
2023-04-09T09:00:44.540Z,101316.00
2023-04-09T09:03:12.886Z,101319.00
2023-04-09T09:05:41.684Z,101314.00
2023-04-09T09:08:09.963Z,101318.00
2023-04-09T09:10:42.262Z,101316.00
2023-04-09T09:13:23.127Z,101314.00
2023-04-09T09:15:54.495Z,101309.00
2023-04-09T09:18:37.285Z,101311.00
2023-04-09T09:21:11.466Z,101314.00
2023-04-09T09:23:38.855Z,101306.00
2023-04-09T09:26:12.912Z,101310.00
2023-04-09T09:28:41.147Z,101320.00
2023-04-09T09:31:09.392Z,101324.00
2023-04-09T09:33:37.741Z,101331.00
2023-04-09T09:36:05.778Z,101331.00
2023-04-09T09:38:33.106Z,101333.00
2023-04-09T09:41:17.372Z,101321.00
2023-04-09T09:43:45.373Z,101318.00
2023-04-09T09:46:13.278Z,101319.00
2023-04-09T09:48:41.717Z,101317.00
2023-04-09T09:51:10.481Z,101320.00
2023-04-09T09:53:39.170Z,101309.00
2023-04-09T09:56:10.967Z,101311.00
2023-04-09T09:58:41.576Z,101316.00
2023-04-09T10:01:10.957Z,101308.00
2023-04-09T10:03:42.202Z,101313.00
2023-04-09T10:06:11.100Z,101307.00
2023-04-09T10:08:41.113Z,101303.00
2023-04-09T10:11:09.044Z,101298.00
2023-04-09T10:13:43.584Z,101299.00
2023-04-09T10:16:11.135Z,101299.00
2023-04-09T10:18:39.238Z,101292.00
2023-04-09T10:21:16.246Z,101292.00
2023-04-09T10:23:48.755Z,101298.00
2023-04-09T10:26:18.070Z,101298.00
2023-04-09T10:28:45.684Z,101288.00
2023-04-09T10:31:14.113Z,101286.00
2023-04-09T10:33:49.471Z,101289.00
2023-04-09T10:36:21.714Z,101303.00
2023-04-09T10:38:50.213Z,101293.00
2023-04-09T10:41:27.349Z,101303.00
2023-04-09T10:43:54.914Z,101295.00
2023-04-09T10:46:27.417Z,101283.00
2023-04-09T10:49:11.458Z,101284.00
2023-04-09T10:51:39.979Z,101290.00
2023-04-09T10:54:32.938Z,101286.00
2023-04-09T10:57:14.208Z,101287.00
2023-04-09T10:59:44.171Z,101281.00
2023-04-09T11:02:40.030Z,101273.00
2023-04-09T11:05:18.253Z,101275.00
2023-04-09T11:07:52.261Z,101272.00
2023-04-09T11:10:22.361Z,101274.00
2023-04-09T11:12:50.278Z,101272.00
2023-04-09T11:15:18.569Z,101270.00
2023-04-09T11:17:47.032Z,101267.00
2023-04-09T11:20:15.128Z,101275.00
2023-04-09T11:22:42.954Z,101264.00
2023-04-09T11:25:17.311Z,101274.00
2023-04-09T11:27:47.049Z,101269.00
2023-04-09T11:30:15.163Z,101267.00
2023-04-09T11:32:43.036Z,101269.00
2023-04-09T11:35:15.002Z,101271.00
2023-04-09T11:37:43.586Z,101271.00
2023-04-09T11:40:16.818Z,101272.00
2023-04-09T11:42:45.060Z,101271.00
2023-04-09T11:45:13.267Z,101265.00
2023-04-09T11:47:41.575Z,101272.00
2023-04-09T11:50:11.184Z,101258.00
2023-04-09T11:52:40.814Z,101262.00
2023-04-09T11:55:09.449Z,101267.00
2023-04-09T11:57:42.664Z,101260.00
2023-04-09T12:00:12.076Z,101266.00
2023-04-09T12:02:41.622Z,101264.00
2023-04-09T12:05:11.400Z,101269.00
2023-04-09T12:07:39.598Z,101265.00
2023-04-09T12:10:10.144Z,101255.00
2023-04-09T12:12:42.872Z,101266.00
2023-04-09T12:15:20.409Z,101272.00
2023-04-09T12:17:49.337Z,101264.00
2023-04-09T12:20:30.758Z,101262.00
2023-04-09T12:23:00.631Z,101261.00
2023-04-09T12:25:28.632Z,101255.00
2023-04-09T12:28:09.045Z,101265.00
2023-04-09T12:30:36.884Z,101258.00
2023-04-09T12:33:04.734Z,101271.00
2023-04-09T12:35:32.380Z,101269.00
2023-04-09T12:38:00.125Z,101263.00
2023-04-09T12:40:27.883Z,101268.00
2023-04-09T12:42:56.039Z,101269.00
2023-04-09T12:45:23.502Z,101270.00
2023-04-09T12:47:51.082Z,101277.00
2023-04-09T12:50:18.492Z,101264.00
2023-04-09T12:52:46.374Z,101263.00
2023-04-09T12:55:14.562Z,101263.00
2023-04-09T12:57:44.721Z,101254.00
2023-04-09T13:00:13.984Z,101262.00
2023-04-09T13:02:41.642Z,101259.00
2023-04-09T13:05:09.783Z,101251.00
2023-04-09T13:07:37.145Z,101259.00
2023-04-09T13:10:04.963Z,101250.00
2023-04-09T13:12:32.478Z,101245.00
2023-04-09T13:14:59.883Z,101242.00
2023-04-09T13:17:27.969Z,101231.00
2023-04-09T13:19:55.406Z,101236.00
2023-04-09T13:22:22.796Z,101237.00
2023-04-09T13:24:50.385Z,101242.00
2023-04-09T13:27:17.715Z,101228.00
2023-04-09T13:29:44.995Z,101232.00
2023-04-09T13:32:12.437Z,101225.00
2023-04-09T13:34:41.855Z,101226.00
2023-04-09T13:37:09.129Z,101222.00
2023-04-09T13:39:36.427Z,101228.00
2023-04-09T13:42:12.599Z,101226.00
2023-04-09T13:44:41.507Z,101225.00
2023-04-09T13:47:10.507Z,101217.00
2023-04-09T13:49:37.865Z,101220.00
2023-04-09T13:52:06.192Z,101213.00
2023-04-09T13:54:33.820Z,101215.00
2023-04-09T13:57:01.294Z,101207.00
2023-04-09T13:59:29.159Z,101208.00
2023-04-09T14:01:56.616Z,101214.00
2023-04-09T14:04:24.110Z,101206.00
2023-04-09T14:06:51.494Z,101207.00
2023-04-09T14:09:19.540Z,101203.00
2023-04-09T14:11:47.029Z,101206.00
2023-04-09T14:14:14.366Z,101209.00
2023-04-09T14:16:41.818Z,101200.00
2023-04-09T14:19:09.726Z,101206.00
2023-04-09T14:21:37.223Z,101201.00
2023-04-09T14:24:05.383Z,101194.00
2023-04-09T14:26:33.574Z,101195.00
2023-04-09T14:29:00.958Z,101201.00
2023-04-09T14:31:28.656Z,101195.00
2023-04-09T14:33:56.184Z,101186.00
2023-04-09T14:36:24.236Z,101176.00
2023-04-09T14:38:52.533Z,101184.00
2023-04-09T14:41:20.964Z,101187.00
2023-04-09T14:43:49.300Z,101186.00
2023-04-09T14:46:16.774Z,101179.00
2023-04-09T14:48:44.167Z,101178.00
2023-04-09T14:51:11.895Z,101185.00
2023-04-09T14:53:39.318Z,101179.00
2023-04-09T14:56:07.373Z,101180.00
2023-04-09T14:58:34.694Z,101183.00
2023-04-09T15:01:03.566Z,101174.00
2023-04-09T15:03:31.265Z,101179.00
2023-04-09T15:05:59.947Z,101170.00
2023-04-09T15:08:27.226Z,101165.00
2023-04-09T15:10:54.615Z,101169.00
2023-04-09T15:13:22.057Z,101159.00
2023-04-09T15:15:49.571Z,101165.00
2023-04-09T15:18:18.682Z,101164.00
2023-04-09T15:20:47.041Z,101162.00
2023-04-09T15:23:14.386Z,101172.00
2023-04-09T15:25:41.763Z,101163.00
2023-04-09T15:28:09.246Z,101173.00
2023-04-09T15:30:36.589Z,101167.00
2023-04-09T15:33:05.597Z,101164.00
2023-04-09T15:35:33.764Z,101163.00
2023-04-09T15:38:01.074Z,101164.00
2023-04-09T15:40:28.484Z,101159.00
2023-04-09T15:42:55.803Z,101159.00
2023-04-09T15:45:23.072Z,101163.00
2023-04-09T15:47:50.396Z,101158.00
2023-04-09T15:50:17.727Z,101160.00
2023-04-09T15:52:45.769Z,101159.00
2023-04-09T15:55:13.051Z,101157.00
2023-04-09T15:57:40.600Z,101151.00
2023-04-09T16:00:10.030Z,101152.00
2023-04-09T16:02:38.144Z,101160.00
2023-04-09T16:05:06.454Z,101159.00
2023-04-09T16:07:33.872Z,101158.00
2023-04-09T16:10:01.952Z,101156.00
2023-04-09T16:12:29.307Z,101147.00
2023-04-09T16:14:56.703Z,101158.00
2023-04-09T16:17:24.382Z,101160.00
2023-04-09T16:19:51.751Z,101157.00
2023-04-09T16:22:19.119Z,101160.00
2023-04-09T16:24:46.457Z,101156.00
2023-04-09T16:27:15.236Z,101159.00
2023-04-09T16:29:42.681Z,101158.00
2023-04-09T16:32:10.054Z,101154.00
2023-04-09T16:34:37.434Z,101145.00
2023-04-09T16:37:04.912Z,101148.00
2023-04-09T16:39:32.243Z,101155.00
2023-04-09T16:42:00.856Z,101156.00
2023-04-09T16:44:29.029Z,101149.00
2023-04-09T16:46:56.377Z,101154.00
2023-04-09T16:49:23.951Z,101154.00
2023-04-09T16:51:52.422Z,101150.00
2023-04-09T16:54:19.752Z,101151.00
2023-04-09T16:56:48.052Z,101152.00
2023-04-09T16:59:16.938Z,101153.00
2023-04-09T17:01:45.153Z,101151.00
2023-04-09T17:04:12.696Z,101158.00
2023-04-09T17:06:40.025Z,101158.00
2023-04-09T17:09:07.368Z,101151.00
2023-04-09T17:11:34.793Z,101159.00
2023-04-09T17:14:02.149Z,101156.00
2023-04-09T17:16:29.951Z,101153.00
2023-04-09T17:18:58.291Z,101161.00
2023-04-09T17:21:26.128Z,101155.00
2023-04-09T17:23:53.405Z,101158.00
2023-04-09T17:26:20.761Z,101162.00
2023-04-09T17:28:51.844Z,101155.00
2023-04-09T17:31:23.445Z,101157.00
2023-04-09T17:33:53.304Z,101152.00
2023-04-09T17:36:22.252Z,101158.00
2023-04-09T17:38:51.413Z,101161.00
2023-04-09T17:41:18.901Z,101164.00
2023-04-09T17:43:46.392Z,101161.00
2023-04-09T17:46:13.714Z,101161.00
2023-04-09T17:48:41.480Z,101162.00
2023-04-09T17:51:14.014Z,101163.00
2023-04-09T17:53:42.484Z,101155.00
2023-04-09T17:56:14.012Z,101160.00
2023-04-09T17:58:41.391Z,101164.00
2023-04-09T18:01:09.053Z,101170.00
2023-04-09T18:03:36.823Z,101167.00
2023-04-09T18:06:06.341Z,101168.00
2023-04-09T18:08:33.798Z,101171.00
2023-04-09T18:11:11.939Z,101164.00
2023-04-09T18:13:40.400Z,101172.00
2023-04-09T18:16:09.423Z,101172.00
2023-04-09T18:18:36.832Z,101168.00
2023-04-09T18:21:05.432Z,101169.00
2023-04-09T18:23:32.871Z,101179.00
2023-04-09T18:26:02.836Z,101175.00
2023-04-09T18:28:30.196Z,101179.00
2023-04-09T18:30:58.098Z,101177.00
2023-04-09T18:33:26.392Z,101179.00
2023-04-09T18:35:53.988Z,101178.00
2023-04-09T18:38:21.335Z,101181.00
2023-04-09T18:40:48.735Z,101179.00
2023-04-09T18:43:19.670Z,101178.00
2023-04-09T18:45:47.041Z,101191.00
2023-04-09T18:48:14.679Z,101184.00
2023-04-09T18:50:42.101Z,101189.00
2023-04-09T18:53:09.746Z,101187.00
2023-04-09T18:55:37.449Z,101193.00
2023-04-09T18:58:07.942Z,101185.00
2023-04-09T19:00:36.050Z,101188.00
2023-04-09T19:03:03.817Z,101199.00
2023-04-09T19:05:31.808Z,101200.00
2023-04-09T19:07:59.393Z,101197.00
2023-04-09T19:10:27.538Z,101195.00
2023-04-09T19:12:55.337Z,101204.00
2023-04-09T19:15:25.378Z,101193.00
2023-04-09T19:17:54.229Z,101193.00
2023-04-09T19:20:21.766Z,101193.00
2023-04-09T19:22:49.693Z,101188.00
2023-04-09T19:25:17.538Z,101188.00
2023-04-09T19:27:45.151Z,101183.00
2023-04-09T19:30:13.174Z,101187.00
2023-04-09T19:32:41.145Z,101186.00
2023-04-09T19:35:09.793Z,101191.00
2023-04-09T19:37:37.116Z,101195.00
2023-04-09T19:40:05.223Z,101197.00
2023-04-09T19:42:32.611Z,101198.00
2023-04-09T19:44:59.960Z,101185.00
2023-04-09T19:47:27.633Z,101187.00
2023-04-09T19:49:55.261Z,101188.00
2023-04-09T19:52:23.325Z,101186.00
2023-04-09T19:54:54.729Z,101178.00
2023-04-09T19:57:22.398Z,101191.00
2023-04-09T19:59:51.526Z,101188.00
2023-04-09T20:02:18.924Z,101186.00
2023-04-09T20:04:46.250Z,101189.00
2023-04-09T20:07:13.614Z,101188.00
2023-04-09T20:09:41.792Z,101196.00
2023-04-09T20:12:09.664Z,101185.00
2023-04-09T20:14:38.532Z,101183.00
2023-04-09T20:17:07.989Z,101186.00
2023-04-09T20:19:35.579Z,101190.00
2023-04-09T20:22:02.956Z,101185.00
2023-04-09T20:24:30.256Z,101187.00
2023-04-09T20:26:59.000Z,101191.00
2023-04-09T20:29:26.423Z,101191.00
2023-04-09T20:31:53.827Z,101193.00
2023-04-09T20:34:25.832Z,101191.00
2023-04-09T20:36:53.393Z,101187.00
2023-04-09T20:39:21.043Z,101188.00
2023-04-09T20:41:48.321Z,101183.00
2023-04-09T20:44:16.382Z,101191.00
2023-04-09T20:46:43.753Z,101183.00
2023-04-09T20:49:11.553Z,101179.00
2023-04-09T20:51:39.257Z,101189.00
2023-04-09T20:54:06.566Z,101176.00
2023-04-09T20:56:33.876Z,101185.00
2023-04-09T20:59:01.222Z,101186.00
2023-04-09T21:01:29.663Z,101183.00
2023-04-09T21:03:57.121Z,101181.00
2023-04-09T21:06:24.737Z,101180.00
2023-04-09T21:08:52.192Z,101181.00
2023-04-09T21:11:19.554Z,101186.00
2023-04-09T21:13:54.714Z,101179.00
2023-04-09T21:16:22.961Z,101189.00
2023-04-09T21:18:51.332Z,101190.00
2023-04-09T21:21:19.018Z,101186.00
2023-04-09T21:23:46.525Z,101197.00
2023-04-09T21:26:14.363Z,101198.00
2023-04-09T21:28:41.894Z,101194.00
2023-04-09T21:31:11.058Z,101195.00
2023-04-09T21:33:39.042Z,101196.00
2023-04-09T21:36:08.307Z,101198.00
2023-04-09T21:38:35.859Z,101195.00
2023-04-09T21:41:03.329Z,101195.00
2023-04-09T21:43:30.627Z,101200.00
2023-04-09T21:45:58.020Z,101200.00
2023-04-09T21:48:25.719Z,101199.00
2023-04-09T21:50:56.386Z,101204.00
2023-04-09T21:53:24.898Z,101205.00
2023-04-09T21:55:52.296Z,101203.00
2023-04-09T21:58:19.586Z,101199.00
2023-04-09T22:00:47.584Z,101196.00
2023-04-09T22:03:15.263Z,101194.00
2023-04-09T22:05:46.256Z,101197.00
2023-04-09T22:08:13.667Z,101186.00
2023-04-09T22:10:41.641Z,101192.00
2023-04-09T22:13:08.890Z,101203.00
2023-04-09T22:15:36.428Z,101201.00
2023-04-09T22:18:06.116Z,101204.00
2023-04-09T22:20:33.357Z,101201.00
2023-04-09T22:23:00.631Z,101203.00
2023-04-09T22:25:33.963Z,101192.00
2023-04-09T22:28:05.153Z,101199.00
2023-04-09T22:30:32.877Z,101197.00
2023-04-09T22:33:01.313Z,101205.00
2023-04-09T22:35:28.689Z,101186.00
2023-04-09T22:37:55.998Z,101202.00
2023-04-09T22:40:23.672Z,101204.00
2023-04-09T22:42:51.088Z,101199.00
2023-04-09T22:45:19.703Z,101193.00
2023-04-09T22:47:47.253Z,101191.00
2023-04-09T22:50:15.029Z,101195.00
2023-04-09T22:52:42.400Z,101205.00
2023-04-09T22:55:10.660Z,101198.00
2023-04-09T22:57:37.956Z,101197.00
2023-04-09T23:00:07.772Z,101202.00
2023-04-09T23:02:36.429Z,101192.00
2023-04-09T23:05:04.451Z,101200.00
2023-04-09T23:07:31.797Z,101181.00
2023-04-09T23:09:59.696Z,101177.00
2023-04-09T23:12:26.959Z,101176.00
2023-04-09T23:14:54.227Z,101170.00
2023-04-09T23:17:23.687Z,101181.00
2023-04-09T23:19:52.007Z,101171.00
2023-04-09T23:22:19.354Z,101173.00
2023-04-09T23:24:46.811Z,101171.00
2023-04-09T23:27:14.706Z,101171.00
2023-04-09T23:29:42.052Z,101170.00
2023-04-09T23:32:09.331Z,101172.00
2023-04-09T23:34:36.605Z,101165.00
2023-04-09T23:37:04.704Z,101179.00
2023-04-09T23:39:32.157Z,101185.00
2023-04-09T23:41:59.409Z,101180.00
2023-04-09T23:44:27.355Z,101186.00
2023-04-09T23:46:54.998Z,101176.00
2023-04-09T23:49:22.276Z,101180.00
2023-04-09T23:51:51.496Z,101179.00
2023-04-09T23:54:19.687Z,101173.00
2023-04-09T23:56:47.174Z,101178.00
2023-04-09T23:59:14.622Z,101174.00
